This is the latest recevied weather packets stored in our database for station/object K4DFD-13. If no packets are shown the sender has not sent any weather packets the latest 10 day(s).
| Time | Temp. | Humidity | Pressure | Rain* | Wind** | Luminosity | Snow |
|---|---|---|---|---|---|---|---|
| 1777673239 | 20° C | 36% | 1010.5 hPa | 0 mm | - | - | - |
| 1777672939 | 19.44° C | 36% | 1010.5 hPa | 0 mm | - | - | - |
| 1777672639 | 18.89° C | 42% | 1010.6 hPa | 0 mm | - | - | - |
| 1777672339 | 18.33° C | 47% | 1010.7 hPa | 0 mm | - | - | - |
| 1777672038 | 18.89° C | 46% | 1010.6 hPa | 0 mm | - | - | - |
| 1777671738 | 18.33° C | 47% | 1010.3 hPa | 0 mm | - | - | - |
| 1777671438 | 17.78° C | 48% | 1010.6 hPa | 0 mm | - | - | - |
| 1777671137 | 17.78° C | 48% | 1010.8 hPa | 0 mm | - | - | - |
| 1777670837 | 17.78° C | 48% | 1010.7 hPa | 0 mm | - | - | - |
| 1777670537 | 18.33° C | 46% | 1010.8 hPa | 0 mm | - | - | - |
| 1777670236 | 18.33° C | 46% | 1010.6 hPa | 0 mm | - | - | - |
| 1777669936 | 18.33° C | 45% | 1011.1 hPa | 0 mm | - | - | - |
| 1777669636 | 18.33° C | 44% | 1011 hPa | 0 mm | - | - | - |
| 1777669335 | 18.33° C | 46% | 1010.8 hPa | 0 mm | - | - | - |
| 1777669035 | 18.33° C | 45% | 1011.2 hPa | 0 mm | - | - | - |
| 1777668735 | 18.33° C | 45% | 1011.2 hPa | 0 mm | - | - | - |
| 1777668434 | 18.89° C | 44% | 1011.1 hPa | 0 mm | - | - | - |
| 1777668134 | 18.33° C | 46% | 1010.8 hPa | 0 mm | - | - | - |
| 1777667834 | 18.33° C | 46% | 1011.4 hPa | 0 mm | - | - | - |
| 1777667533 | 18.89° C | 45% | 1011 hPa | 0 mm | - | - | - |
| 1777667233 | 18.89° C | 46% | 1011.1 hPa | 0 mm | - | - | - |
| 1777666933 | 18.89° C | 44% | 1011.1 hPa | 0 mm | - | - | - |
| 1777666632 | 19.44° C | 44% | 1011.1 hPa | 0 mm | - | - | - |
| 1777666332 | 18.89° C | 45% | 1011.1 hPa | 0 mm | - | - | - |
| 1777666032 | 18.89° C | 45% | 1011.2 hPa | 0 mm | - | - | - |
* Rain latest hour (hover to see other rain measurements)
** Current wind speed in m/s (hover to see current wind gust speed)